Sheikhupura Weather



Sheikhupura's Current Weather

Temprature 21o scattered clouds

scattered clouds

Rain: 0 %

Min Temprature21o
Max Temprature21o
Humidity37
Wind Speed4.1 m/h
Sun Rise06:37:58
Sun Set17:57:14
Current Time: 23-Feb-2019 16:32:43
Lat/Lon: 31.71, 73.99




Sheikhupura's Geo Location




Sheikhupura's Weather Forecast

Time Overall Temp Min Temp Max Temp Humidity Wind Speed Rain
23-Feb-2019 (Sat)
17:00:00 clear sky 19.930 19.124 19.930 69 1.86 m/h 0 %
20:00:00 clear sky 14.520 13.909 14.520 69 1.62 m/h 0 %
23:00:00 clear sky 12.140 11.740 12.140 77 2.57 m/h 0 %
24-Feb-2019 (Sun)
02:00:00 clear sky 10.260 10.060 10.260 84 1.06 m/h 0 %
05:00:00 clear sky 9.192 9.192 9.192 87 1.11 m/h 0 %
08:00:00 clear sky 10.878 10.878 10.878 82 1.31 m/h 0 %
11:00:00 clear sky 18.424 18.424 18.424 93 2.06 m/h 0 %
14:00:00 clear sky 20.531 20.531 20.531 89 2.07 m/h 0 %
17:00:00 clear sky 19.721 19.721 19.721 71 1.35 m/h 0 %
20:00:00 clear sky 14.593 14.593 14.593 72 1.21 m/h 0 %
23:00:00 few clouds 12.436 12.436 12.436 79 1.21 m/h 0 %
25-Feb-2019 (Mon)
02:00:00 light rain 11.455 11.455 11.455 81 1.62 m/h 1 %
05:00:00 light rain 9.927 9.927 9.927 96 3.46 m/h 83 %
08:00:00 light rain 11.095 11.095 11.095 97 4.47 m/h 98 %
11:00:00 light rain 13.272 13.272 13.272 100 3.86 m/h 235 %
14:00:00 light rain 14.873 14.873 14.873 100 2.52 m/h 299 %
17:00:00 light rain 14.787 14.787 14.787 90 2.21 m/h 257 %
20:00:00 light rain 11.473 11.473 11.473 91 1.91 m/h 130 %
23:00:00 light rain 10.517 10.517 10.517 95 2.66 m/h 206 %
26-Feb-2019 (Tue)
02:00:00 light rain 10.551 10.551 10.551 96 3.61 m/h 19 %
05:00:00 light rain 10.597 10.597 10.597 97 3.31 m/h 4 %
08:00:00 light rain 11.232 11.232 11.232 99 2.97 m/h 2 %
11:00:00 light rain 13.517 13.517 13.517 100 2.12 m/h 1 %
14:00:00 light rain 13.921 13.921 13.921 100 3.26 m/h 23 %
17:00:00 light rain 13.764 13.764 13.764 98 2.41 m/h 24 %
20:00:00 light rain 12.511 12.511 12.511 97 2.62 m/h 5 %
23:00:00 light rain 11.323 11.323 11.323 95 1.22 m/h 5 %
27-Feb-2019 (Wed)
02:00:00 light rain 10.881 10.881 10.881 97 1.06 m/h 9 %
05:00:00 light rain 10.544 10.544 10.544 96 1.55 m/h 1 %
08:00:00 light rain 10.815 10.815 10.815 99 1.87 m/h 3 %
11:00:00 broken clouds 13.970 13.970 13.970 100 2.06 m/h 0 %
14:00:00 light rain 15.086 15.086 15.086 100 2.05 m/h 2 %
17:00:00 broken clouds 14.998 14.998 14.998 88 2.96 m/h 0 %
20:00:00 light rain 12.667 12.667 12.667 84 2.62 m/h 3 %
23:00:00 scattered clouds 10.616 10.616 10.616 90 2.77 m/h 0 %
28-Feb-2019 (Thu)
02:00:00 broken clouds 9.691 9.691 9.691 93 1.76 m/h 0 %
05:00:00 broken clouds 9.238 9.238 9.238 94 1.36 m/h 0 %
08:00:00 broken clouds 10.240 10.240 10.240 89 1.46 m/h 0 %
11:00:00 overcast clouds 13.472 13.472 13.472 98 2.16 m/h 0 %
14:00:00 light rain 14.179 14.179 14.179 87 2.17 m/h 1 %

Famous Cities (60)